createdAt,value
2023-02-23T00:01:29.075Z,100893.00
2023-02-23T00:03:57.285Z,100895.75
2023-02-23T00:06:25.990Z,100890.63
2023-02-23T00:08:53.074Z,100897.34
2023-02-23T00:11:21.356Z,100901.69
2023-02-23T00:13:50.209Z,100896.16
2023-02-23T00:16:22.736Z,100893.38
2023-02-23T00:18:54.920Z,100896.16
2023-02-23T00:21:35.318Z,100897.34
2023-02-23T00:24:08.819Z,100889.03
2023-02-23T00:26:37.439Z,100891.38
2023-02-23T00:29:07.093Z,100898.13
2023-02-23T00:31:34.264Z,100888.25
2023-02-23T00:34:02.711Z,100890.59
2023-02-23T00:36:34.065Z,100887.84
2023-02-23T00:39:20.600Z,100879.56
2023-02-23T00:41:52.319Z,100879.16
2023-02-23T00:44:21.001Z,100879.53
2023-02-23T00:46:51.629Z,100881.13
2023-02-23T00:49:19.642Z,100878.38
2023-02-23T00:51:47.018Z,100885.09
2023-02-23T00:54:15.309Z,100880.75
2023-02-23T00:56:42.309Z,100881.91
2023-02-23T00:59:09.090Z,100881.91
2023-02-23T01:01:37.474Z,100882.31
2023-02-23T01:04:04.760Z,100883.50
2023-02-23T01:06:32.470Z,100886.69
2023-02-23T01:08:59.101Z,100877.59
2023-02-23T01:11:30.966Z,100880.75
2023-02-23T01:13:59.986Z,100883.50
2023-02-23T01:16:29.908Z,100875.59
2023-02-23T01:18:58.309Z,100881.13
2023-02-23T01:21:26.257Z,100886.66
2023-02-23T01:23:53.759Z,100884.28
2023-02-23T01:26:21.961Z,100885.09
2023-02-23T01:28:50.507Z,100885.50
2023-02-23T01:31:17.458Z,100889.84
2023-02-23T01:33:44.542Z,100885.47
2023-02-23T01:36:11.052Z,100891.81
2023-02-23T01:38:37.880Z,100890.22
2023-02-23T01:41:05.045Z,100886.66
2023-02-23T01:43:31.551Z,100896.16
2023-02-23T01:46:00.933Z,100890.22
2023-02-23T01:48:32.618Z,100886.28
2023-02-23T01:51:10.796Z,100893.38
2023-02-23T01:53:42.645Z,100883.50
2023-02-23T01:56:14.384Z,100889.84
2023-02-23T01:58:45.879Z,100882.31
2023-02-23T02:01:13.215Z,100886.25
2023-02-23T02:03:43.927Z,100885.09
2023-02-23T02:06:14.579Z,100879.53
2023-02-23T02:08:46.315Z,100877.97
2023-02-23T02:11:30.598Z,100871.63
2023-02-23T02:14:05.009Z,100877.97
2023-02-23T02:16:43.979Z,100881.91
2023-02-23T02:19:28.866Z,100874.00
2023-02-23T02:22:17.100Z,100879.13
2023-02-23T02:25:17.629Z,100882.69
2023-02-23T02:27:57.431Z,100872.41
2023-02-23T02:30:30.071Z,100878.75
2023-02-23T02:33:14.886Z,100877.97
2023-02-23T02:36:10.068Z,100883.50
2023-02-23T02:38:53.580Z,100873.22
2023-02-23T02:41:35.748Z,100870.06
2023-02-23T02:44:49.834Z,100872.44
2023-02-23T02:47:34.613Z,100870.06
2023-02-23T02:50:14.539Z,100868.06
2023-02-23T02:52:47.723Z,100869.25
2023-02-23T02:55:35.199Z,100870.03
2023-02-23T02:58:04.511Z,100863.31
2023-02-23T03:01:01.434Z,100871.63
2023-02-23T03:03:55.541Z,100866.09
2023-02-23T03:06:57.480Z,100864.53
2023-02-23T03:10:06.279Z,100865.31
2023-02-23T03:13:03.483Z,100870.84
2023-02-23T03:15:57.399Z,100870.84
2023-02-23T03:19:02.526Z,100867.66
2023-02-23T03:22:02.367Z,100870.84
2023-02-23T03:24:56.912Z,100873.22
2023-02-23T03:28:02.935Z,100876.78
2023-02-23T03:31:04.108Z,100870.84
2023-02-23T03:34:03.104Z,100875.59
2023-02-23T03:36:54.492Z,100882.69
2023-02-23T03:39:57.971Z,100884.28
2023-02-23T03:42:49.052Z,100879.91
2023-02-23T03:45:38.466Z,100882.69
2023-02-23T03:48:28.443Z,100874.78
2023-02-23T03:51:18.247Z,100878.72
2023-02-23T03:54:12.751Z,100881.91
2023-02-23T03:57:03.131Z,100879.53
2023-02-23T03:59:55.635Z,100888.59
2023-02-23T04:02:42.108Z,100881.91
2023-02-23T04:05:33.042Z,100887.81
2023-02-23T04:08:20.889Z,100870.03
2023-02-23T04:11:12.701Z,100879.50
2023-02-23T04:13:40.395Z,100887.41
2023-02-23T04:16:09.018Z,100878.75
2023-02-23T04:18:38.760Z,100890.19
2023-02-23T04:21:06.673Z,100887.03
2023-02-23T04:23:33.204Z,100893.75
2023-02-23T04:25:59.775Z,100893.34
2023-02-23T04:28:27.820Z,100896.09
2023-02-23T04:30:54.398Z,100892.16
2023-02-23T04:33:22.281Z,100891.34
2023-02-23T04:35:49.156Z,100892.13
2023-02-23T04:38:15.724Z,100889.75
2023-02-23T04:40:42.213Z,100899.66
2023-02-23T04:43:11.828Z,100893.72
2023-02-23T04:45:38.561Z,100895.66
2023-02-23T04:48:05.578Z,100896.47
2023-02-23T04:50:32.695Z,100898.06
2023-02-23T04:52:59.364Z,100898.84
2023-02-23T04:55:26.449Z,100898.44
2023-02-23T04:57:59.064Z,100902.41
2023-02-23T05:00:26.638Z,100894.09
2023-02-23T05:02:53.200Z,100906.34
2023-02-23T05:05:19.736Z,100904.78
2023-02-23T05:07:46.245Z,100895.69
2023-02-23T05:10:12.766Z,100908.34
2023-02-23T05:12:39.250Z,100896.09
2023-02-23T05:15:06.401Z,100897.66
2023-02-23T05:17:32.882Z,100905.53
2023-02-23T05:19:59.393Z,100892.91
2023-02-23T05:22:25.919Z,100903.97
2023-02-23T05:24:52.428Z,100911.88
2023-02-23T05:27:19.130Z,100909.09
2023-02-23T05:29:45.666Z,100905.16
2023-02-23T05:32:12.365Z,100905.16
2023-02-23T05:34:39.213Z,100905.56
2023-02-23T05:37:06.221Z,100910.72
2023-02-23T05:39:32.933Z,100918.59
2023-02-23T05:41:59.467Z,100909.91
2023-02-23T05:44:26.062Z,100911.88
2023-02-23T05:46:52.936Z,100917.41
2023-02-23T05:49:19.417Z,100907.94
2023-02-23T05:51:45.872Z,100911.47
2023-02-23T05:54:13.466Z,100909.91
2023-02-23T05:56:41.152Z,100913.47
2023-02-23T05:59:07.817Z,100905.94
2023-02-23T06:01:34.322Z,100920.56
2023-02-23T06:04:00.925Z,100919.41
2023-02-23T06:06:28.470Z,100911.47
2023-02-23T06:08:55.163Z,100920.97
2023-02-23T06:11:21.972Z,100920.56
2023-02-23T06:13:48.958Z,100931.63
2023-02-23T06:16:15.858Z,100922.91
2023-02-23T06:18:42.440Z,100925.69
2023-02-23T06:21:08.928Z,100930.81
2023-02-23T06:23:35.512Z,100927.28
2023-02-23T06:26:02.284Z,100930.84
2023-02-23T06:28:29.415Z,100934.00
2023-02-23T06:30:56.125Z,100941.88
2023-02-23T06:33:23.164Z,100942.25
2023-02-23T06:35:49.933Z,100949.75
2023-02-23T06:38:16.889Z,100953.28
2023-02-23T06:40:43.698Z,100946.19
2023-02-23T06:43:10.692Z,100942.63
2023-02-23T06:45:37.279Z,100959.63
2023-02-23T06:48:04.415Z,100964.00
2023-02-23T06:50:31.019Z,100966.38
2023-02-23T06:52:57.653Z,100973.47
2023-02-23T06:55:24.536Z,100970.69
2023-02-23T06:57:52.354Z,100970.69
2023-02-23T07:00:19.334Z,100980.19
2023-02-23T07:02:45.929Z,100982.94
2023-02-23T07:05:12.438Z,100968.69
2023-02-23T07:07:38.986Z,100975.41
2023-02-23T07:10:06.274Z,100975.41
2023-02-23T07:12:32.899Z,100981.75
2023-02-23T07:14:59.399Z,100980.94
2023-02-23T07:17:25.883Z,100984.50
2023-02-23T07:19:52.502Z,100984.13
2023-02-23T07:22:18.952Z,100988.88
2023-02-23T07:24:46.280Z,100986.91
2023-02-23T07:27:12.820Z,100988.91
2023-02-23T07:29:39.296Z,100998.38
2023-02-23T07:32:06.056Z,100992.41
2023-02-23T07:34:32.640Z,100996.41
2023-02-23T07:36:59.150Z,101004.28
2023-02-23T07:39:25.737Z,101008.66
2023-02-23T07:41:52.199Z,100997.97
2023-02-23T07:44:19.526Z,101007.50
2023-02-23T07:46:46.534Z,101009.50
2023-02-23T07:49:13.872Z,101008.28
2023-02-23T07:51:41.113Z,101004.31
2023-02-23T07:54:07.719Z,101014.59
2023-02-23T07:56:35.277Z,101006.28
2023-02-23T07:59:02.641Z,101012.63
2023-02-23T08:01:29.282Z,101019.34
2023-02-23T08:03:55.925Z,101015.38
2023-02-23T08:06:22.494Z,101024.88
2023-02-23T08:08:49.195Z,101024.88
2023-02-23T08:11:15.829Z,101024.44
2023-02-23T08:13:42.545Z,101030.41
2023-02-23T08:16:09.033Z,101032.75
2023-02-23T08:18:35.685Z,101035.50
2023-02-23T08:21:03.595Z,101034.72
2023-02-23T08:23:34.935Z,101041.81
2023-02-23T08:26:02.668Z,101037.00
2023-02-23T08:28:30.846Z,101041.38
2023-02-23T08:30:59.277Z,101042.13
2023-02-23T08:33:25.952Z,101048.47
2023-02-23T08:35:53.646Z,101046.06
2023-02-23T08:38:20.425Z,101053.22
2023-02-23T08:40:46.978Z,101055.22
2023-02-23T08:43:13.487Z,101057.56
2023-02-23T08:45:39.990Z,101050.03
2023-02-23T08:48:07.819Z,101058.75
2023-02-23T08:50:34.817Z,101052.84
2023-02-23T08:53:01.386Z,101048.47
2023-02-23T08:55:27.869Z,101059.94
2023-02-23T08:57:54.368Z,101068.66
2023-02-23T09:00:21.281Z,101060.31
2023-02-23T09:02:48.297Z,101073.78
2023-02-23T09:05:15.121Z,101070.56
2023-02-23T09:07:45.067Z,101071.38
2023-02-23T09:10:16.895Z,101069.75
2023-02-23T09:12:43.417Z,101067.38
2023-02-23T09:15:10.563Z,101072.91
2023-02-23T09:17:37.998Z,101077.22
2023-02-23T09:20:06.245Z,101073.25
2023-02-23T09:22:32.791Z,101081.94
2023-02-23T09:24:59.326Z,101081.94
2023-02-23T09:27:26.102Z,101076.78
2023-02-23T09:29:52.664Z,101086.66
2023-02-23T09:32:19.370Z,101087.09
2023-02-23T09:34:48.658Z,101082.38
2023-02-23T09:37:15.743Z,101085.97
2023-02-23T09:39:43.561Z,101080.44
2023-02-23T09:42:17.044Z,101087.22
2023-02-23T09:45:01.426Z,101091.19
2023-02-23T09:47:27.921Z,101097.16
2023-02-23T09:49:56.288Z,101088.88
2023-02-23T09:52:28.111Z,101096.03
2023-02-23T09:54:54.756Z,101096.50
2023-02-23T09:57:36.605Z,101102.44
2023-02-23T10:00:13.047Z,101101.69
2023-02-23T10:03:00.918Z,101103.66
2023-02-23T10:05:31.802Z,101108.81
2023-02-23T10:08:16.508Z,101109.97
2023-02-23T10:10:47.309Z,101109.22
2023-02-23T10:13:31.876Z,101123.81
2023-02-23T10:16:05.420Z,101117.50
2023-02-23T10:18:52.292Z,101109.56
2023-02-23T10:21:39.176Z,101119.84
2023-02-23T10:24:26.936Z,101125.78
2023-02-23T10:27:10.336Z,101127.78
2023-02-23T10:29:51.602Z,101125.44
2023-02-23T10:32:41.076Z,101122.28
2023-02-23T10:35:14.741Z,101108.78
2023-02-23T10:37:41.510Z,101123.03
2023-02-23T10:40:16.637Z,101123.41
2023-02-23T10:42:43.847Z,101119.44
2023-02-23T10:45:19.657Z,101117.88
2023-02-23T10:47:47.035Z,101119.47
2023-02-23T10:50:15.048Z,101111.16
2023-02-23T10:52:45.531Z,101122.63
2023-02-23T10:55:28.675Z,101128.53
2023-02-23T10:58:19.170Z,101129.69
2023-02-23T11:00:55.523Z,101125.78
2023-02-23T11:03:26.726Z,101117.44
2023-02-23T11:05:53.832Z,101125.34
2023-02-23T11:08:29.309Z,101130.50
2023-02-23T11:10:57.129Z,101130.84
2023-02-23T11:13:27.328Z,101128.47
2023-02-23T11:16:10.744Z,101126.84
2023-02-23T11:18:39.340Z,101132.41
2023-02-23T11:21:12.333Z,101129.97
2023-02-23T11:23:41.264Z,101134.69
2023-02-23T11:26:41.703Z,101138.59
2023-02-23T11:29:36.394Z,101125.16
2023-02-23T11:32:31.500Z,101133.84
2023-02-23T11:35:16.400Z,101131.91
2023-02-23T11:37:42.921Z,101127.09
2023-02-23T11:40:29.019Z,101131.41
2023-02-23T11:43:19.056Z,101134.16
2023-02-23T11:45:51.879Z,101127.38
2023-02-23T11:48:22.211Z,101133.75
2023-02-23T11:50:49.644Z,101137.31
2023-02-23T11:53:29.980Z,101132.91
2023-02-23T11:56:02.583Z,101123.41
2023-02-23T11:58:39.388Z,101127.06
2023-02-23T12:01:12.240Z,101123.50
2023-02-23T12:03:47.764Z,101131.44
2023-02-23T12:06:35.595Z,101125.13
2023-02-23T12:09:05.249Z,101118.09
2023-02-23T12:11:37.975Z,101118.91
2023-02-23T12:14:18.745Z,101118.47
2023-02-23T12:16:50.835Z,101118.94
2023-02-23T12:19:20.313Z,101113.41
2023-02-23T12:22:05.613Z,101109.50
2023-02-23T12:25:04.918Z,101113.41
2023-02-23T12:27:46.492Z,101115.38
2023-02-23T12:30:45.837Z,101119.75
2023-02-23T12:33:12.370Z,101129.25
2023-02-23T12:35:45.669Z,101119.78
2023-02-23T12:38:41.306Z,101116.19
2023-02-23T12:41:19.176Z,101114.22
2023-02-23T12:43:55.662Z,101117.75
2023-02-23T12:46:26.698Z,101122.94
2023-02-23T12:49:17.084Z,101122.13
2023-02-23T12:51:51.628Z,101116.56
2023-02-23T12:54:18.698Z,101121.31
2023-02-23T12:57:12.557Z,101124.47
2023-02-23T12:59:44.880Z,101129.25
2023-02-23T13:02:33.705Z,101122.09
2023-02-23T13:05:31.316Z,101120.13
2023-02-23T13:08:23.425Z,101123.72
2023-02-23T13:11:17.202Z,101122.09
2023-02-23T13:13:59.990Z,101116.19
2023-02-23T13:16:33.025Z,101121.72
2023-02-23T13:19:19.578Z,101124.09
2023-02-23T13:21:56.126Z,101126.09
2023-02-23T13:24:47.365Z,101124.09
2023-02-23T13:27:21.162Z,101124.38
2023-02-23T13:29:49.833Z,101124.00
2023-02-23T13:32:20.455Z,101129.50
2023-02-23T13:35:12.949Z,101126.97
2023-02-23T13:37:45.461Z,101125.88
2023-02-23T13:40:46.612Z,101136.94
2023-02-23T13:43:24.113Z,101140.88
2023-02-23T13:46:01.845Z,101145.22
2023-02-23T13:48:54.416Z,101140.50
2023-02-23T13:51:27.025Z,101136.97
2023-02-23T13:54:06.486Z,101131.41
2023-02-23T13:56:42.165Z,101137.75
2023-02-23T13:59:17.213Z,101136.56
2023-02-23T14:01:46.207Z,101144.88
2023-02-23T14:04:22.106Z,101139.31
2023-02-23T14:07:22.171Z,101144.03
2023-02-23T14:09:56.019Z,101141.31
2023-02-23T14:12:39.857Z,101138.94
2023-02-23T14:15:28.233Z,101140.88
2023-02-23T14:18:02.518Z,101145.22
2023-02-23T14:20:57.012Z,101142.03
2023-02-23T14:23:23.641Z,101131.78
2023-02-23T14:26:11.522Z,101128.56
2023-02-23T14:28:44.582Z,101123.91
2023-02-23T14:31:11.209Z,101123.53
2023-02-23T14:33:48.435Z,101128.69
2023-02-23T14:36:21.072Z,101131.47
2023-02-23T14:39:01.134Z,101135.44
2023-02-23T14:41:50.303Z,101137.81
2023-02-23T14:44:34.817Z,101135.06
2023-02-23T14:47:11.343Z,101128.78
2023-02-23T14:49:43.590Z,101128.00
2023-02-23T14:52:15.148Z,101135.50
2023-02-23T14:54:41.682Z,101129.59
2023-02-23T14:57:25.991Z,101140.25
2023-02-23T15:00:07.189Z,101128.34
2023-02-23T15:02:35.514Z,101142.19
2023-02-23T15:05:18.009Z,101136.66
2023-02-23T15:07:45.713Z,101144.19
2023-02-23T15:10:46.018Z,101148.91
2023-02-23T15:13:29.658Z,101152.47
2023-02-23T15:15:58.742Z,101145.75
2023-02-23T15:18:33.327Z,101149.66
2023-02-23T15:21:12.059Z,101147.66
2023-02-23T15:23:38.981Z,101146.50
2023-02-23T15:26:33.025Z,101151.66
2023-02-23T15:29:13.547Z,101149.66
2023-02-23T15:31:50.163Z,101149.28
2023-02-23T15:34:19.979Z,101140.13
2023-02-23T15:36:57.735Z,101148.84
2023-02-23T15:40:17.917Z,101149.28
2023-02-23T15:42:48.243Z,101152.81
2023-02-23T15:45:28.562Z,101155.91
2023-02-23T15:47:57.538Z,101153.56
2023-02-23T15:50:50.080Z,101141.25
2023-02-23T15:53:38.155Z,101153.53
2023-02-23T15:56:14.335Z,101151.19
2023-02-23T15:58:56.366Z,101149.63
2023-02-23T16:01:29.100Z,101145.28
2023-02-23T16:04:05.562Z,101142.50
2023-02-23T16:06:36.953Z,101139.75
2023-02-23T16:09:20.980Z,101145.28
2023-02-23T16:11:51.115Z,101139.31
2023-02-23T16:14:20.067Z,101137.69
2023-02-23T16:17:08.473Z,101139.28
2023-02-23T16:19:40.975Z,101150.34
2023-02-23T16:22:19.779Z,101140.81
2023-02-23T16:24:56.532Z,101139.22
2023-02-23T16:27:24.797Z,101148.69
2023-02-23T16:30:00.222Z,101151.00
2023-02-23T16:32:37.829Z,101152.63
2023-02-23T16:35:17.349Z,101155.72
2023-02-23T16:38:12.703Z,101149.75
2023-02-23T16:40:40.976Z,101147.41
2023-02-23T16:43:08.173Z,101138.31
2023-02-23T16:45:35.143Z,101140.28
2023-02-23T16:48:03.406Z,101132.78
2023-02-23T16:50:30.552Z,101141.09
2023-02-23T16:52:57.071Z,101139.91
2023-02-23T16:55:26.336Z,101150.19
2023-02-23T16:58:03.984Z,101150.94
2023-02-23T17:00:32.896Z,101152.50
2023-02-23T17:03:05.671Z,101157.63
2023-02-23T17:05:32.893Z,101167.50
2023-02-23T17:07:59.439Z,101163.53
2023-02-23T17:10:32.686Z,101167.91
2023-02-23T17:13:05.491Z,101173.44
2023-02-23T17:15:41.338Z,101166.66
2023-02-23T17:18:07.933Z,101157.09
2023-02-23T17:20:34.425Z,101169.72
2023-02-23T17:23:02.716Z,101177.94
2023-02-23T17:25:29.385Z,101183.91
2023-02-23T17:27:57.688Z,101185.47
2023-02-23T17:30:24.853Z,101182.34
2023-02-23T17:32:53.421Z,101189.44
2023-02-23T17:35:20.348Z,101188.56
2023-02-23T17:37:46.964Z,101186.63
2023-02-23T17:40:26.165Z,101189.00
2023-02-23T17:42:53.614Z,101186.66
2023-02-23T17:45:20.174Z,101190.19
2023-02-23T17:47:46.732Z,101196.91
2023-02-23T17:50:13.321Z,101190.97
2023-02-23T17:52:39.903Z,101194.16
2023-02-23T17:55:07.282Z,101189.38
2023-02-23T17:57:33.770Z,101198.84
2023-02-23T18:00:00.303Z,101207.50
2023-02-23T18:02:26.894Z,101194.06
2023-02-23T18:04:53.646Z,101198.84
2023-02-23T18:07:21.155Z,101191.34
2023-02-23T18:09:50.130Z,101195.72
2023-02-23T18:12:17.947Z,101187.38
2023-02-23T18:14:45.499Z,101194.78
2023-02-23T18:17:13.525Z,101186.88
2023-02-23T18:19:40.052Z,101199.19
2023-02-23T18:22:06.820Z,101196.41
2023-02-23T18:24:33.498Z,101200.38
2023-02-23T18:27:03.459Z,101198.81
2023-02-23T18:29:32.013Z,101194.09
2023-02-23T18:32:00.226Z,101202.75
2023-02-23T18:34:28.743Z,101205.53
2023-02-23T18:36:57.345Z,101204.75
2023-02-23T18:39:24.046Z,101198.03
2023-02-23T18:41:56.763Z,101196.09
2023-02-23T18:44:25.583Z,101206.31
2023-02-23T18:46:52.987Z,101204.69
2023-02-23T18:49:22.266Z,101200.78
2023-02-23T18:51:49.531Z,101189.25
2023-02-23T18:54:19.081Z,101197.53
2023-02-23T18:56:49.946Z,101202.63
2023-02-23T18:59:16.754Z,101195.50
2023-02-23T19:01:46.568Z,101193.50
2023-02-23T19:04:13.213Z,101191.91
2023-02-23T19:06:42.986Z,101174.84
2023-02-23T19:09:12.543Z,101189.03
2023-02-23T19:11:43.401Z,101186.31
2023-02-23T19:14:16.088Z,101186.72
2023-02-23T19:16:43.613Z,101184.72
2023-02-23T19:19:10.134Z,101191.88
2023-02-23T19:21:37.536Z,101187.44
2023-02-23T19:24:05.608Z,101181.88
2023-02-23T19:26:37.684Z,101187.75
2023-02-23T19:29:12.371Z,101188.13
2023-02-23T19:31:39.353Z,101186.47
2023-02-23T19:34:10.616Z,101188.88
2023-02-23T19:36:38.477Z,101194.34
2023-02-23T19:39:17.613Z,101197.06
2023-02-23T19:41:45.751Z,101194.25
2023-02-23T19:44:12.244Z,101194.25
2023-02-23T19:46:39.915Z,101189.16
2023-02-23T19:49:18.731Z,101195.88
2023-02-23T19:51:45.305Z,101195.84
2023-02-23T19:54:12.015Z,101188.69
2023-02-23T19:56:38.711Z,101190.25
2023-02-23T19:59:23.356Z,101198.25
2023-02-23T20:01:51.347Z,101195.47
2023-02-23T20:04:19.203Z,101199.44
2023-02-23T20:06:47.059Z,101195.88
2023-02-23T20:09:23.984Z,101196.25
2023-02-23T20:11:50.424Z,101193.94
2023-02-23T20:14:17.178Z,101203.47
2023-02-23T20:16:43.848Z,101194.31
2023-02-23T20:19:11.553Z,101208.56
2023-02-23T20:21:39.619Z,101209.38
2023-02-23T20:24:06.403Z,101208.56
2023-02-23T20:26:37.221Z,101209.41
2023-02-23T20:29:13.641Z,101203.50
2023-02-23T20:31:50.483Z,101203.50
2023-02-23T20:34:21.093Z,101199.97
2023-02-23T20:36:50.851Z,101207.44
2023-02-23T20:39:17.796Z,101203.38
2023-02-23T20:41:45.684Z,101206.84
2023-02-23T20:44:13.221Z,101206.06
2023-02-23T20:46:41.284Z,101224.16
2023-02-23T20:49:12.702Z,101209.84
2023-02-23T20:51:49.251Z,101210.25
2023-02-23T20:54:18.782Z,101207.38
2023-02-23T20:56:45.836Z,101209.75
2023-02-23T20:59:17.286Z,101221.47
2023-02-23T21:01:44.502Z,101216.28
2023-02-23T21:04:23.637Z,101211.06
2023-02-23T21:06:56.614Z,101201.03
2023-02-23T21:09:25.735Z,101207.31
2023-02-23T21:11:52.233Z,101200.91
2023-02-23T21:14:18.793Z,101199.09
2023-02-23T21:16:46.207Z,101206.63
2023-02-23T21:19:14.654Z,101209.81
2023-02-23T21:21:47.066Z,101213.75
2023-02-23T21:24:15.123Z,101205.03
2023-02-23T21:26:42.464Z,101212.88
2023-02-23T21:29:11.719Z,101211.28
2023-02-23T21:31:39.490Z,101208.91
2023-02-23T21:34:08.117Z,101207.69
2023-02-23T21:36:35.366Z,101213.13
2023-02-23T21:39:01.899Z,101219.88
2023-02-23T21:41:33.779Z,101205.09
2023-02-23T21:44:01.552Z,101215.38
2023-02-23T21:46:28.611Z,101209.50
2023-02-23T21:48:55.185Z,101198.84
2023-02-23T21:51:22.117Z,101199.19
2023-02-23T21:53:48.924Z,101194.94
2023-02-23T21:56:18.393Z,101204.88
2023-02-23T21:58:53.051Z,101206.09
2023-02-23T22:01:23.409Z,101204.56
2023-02-23T22:03:50.781Z,101204.19
2023-02-23T22:06:20.405Z,101199.41
2023-02-23T22:08:49.917Z,101190.19
2023-02-23T22:11:19.660Z,101197.28
2023-02-23T22:13:51.039Z,101191.38
2023-02-23T22:16:19.346Z,101200.75
2023-02-23T22:18:46.639Z,101197.94
2023-02-23T22:21:13.927Z,101197.41
2023-02-23T22:23:41.629Z,101197.81
2023-02-23T22:26:09.024Z,101198.50
2023-02-23T22:28:35.987Z,101188.88
2023-02-23T22:31:04.345Z,101196.31
2023-02-23T22:33:30.985Z,101192.28
2023-02-23T22:36:13.519Z,101190.28
2023-02-23T22:38:42.811Z,101193.78
2023-02-23T22:41:12.483Z,101186.50
2023-02-23T22:43:40.919Z,101197.88
2023-02-23T22:46:08.147Z,101195.53
2023-02-23T22:48:36.020Z,101192.38
2023-02-23T22:51:03.176Z,101183.16
2023-02-23T22:53:30.505Z,101179.91
2023-02-23T22:55:57.107Z,101177.53
2023-02-23T22:58:26.447Z,101182.69
2023-02-23T23:01:09.743Z,101177.91
2023-02-23T23:03:39.630Z,101182.91
2023-02-23T23:06:08.717Z,101173.84
2023-02-23T23:08:43.307Z,101174.19
2023-02-23T23:11:19.465Z,101177.41
2023-02-23T23:13:48.916Z,101184.13
2023-02-23T23:16:30.709Z,101183.19
2023-02-23T23:19:02.639Z,101187.97
2023-02-23T23:21:31.844Z,101186.88
2023-02-23T23:24:01.277Z,101182.22
2023-02-23T23:26:29.590Z,101183.53
2023-02-23T23:28:58.118Z,101176.00
2023-02-23T23:31:30.133Z,101173.31
2023-02-23T23:34:02.441Z,101176.84
2023-02-23T23:36:34.832Z,101179.19
2023-02-23T23:39:02.800Z,101167.31
2023-02-23T23:41:35.247Z,101168.97
2023-02-23T23:44:05.292Z,101165.44
2023-02-23T23:46:35.428Z,101168.53
2023-02-23T23:49:08.621Z,101161.47
2023-02-23T23:51:39.092Z,101158.63
2023-02-23T23:54:07.994Z,101147.59
2023-02-23T23:56:37.273Z,101150.38
2023-02-23T23:59:08.596Z,101141.25
